createdAt,value
2019-02-24T00:01:10.926Z,97417.94
2019-02-24T00:03:59.355Z,97422.98
2019-02-24T00:06:47.723Z,97417.86
2019-02-24T00:09:36.300Z,97415.29
2019-02-24T00:12:25.169Z,97417.86
2019-02-24T00:15:13.843Z,97418.55
2019-02-24T00:18:02.869Z,97424.02
2019-02-24T00:20:51.702Z,97424.02
2019-02-24T00:23:40.583Z,97420.80
2019-02-24T00:26:29.115Z,97418.71
2019-02-24T00:29:17.942Z,97419.91
2019-02-24T00:32:09.609Z,97419.52
2019-02-24T00:34:57.849Z,97414.31
2019-02-24T00:37:46.713Z,97419.40
2019-02-24T00:40:35.466Z,97414.39
2019-02-24T00:43:23.861Z,97413.84
2019-02-24T00:46:12.679Z,97415.00
2019-02-24T00:49:00.950Z,97409.06
2019-02-24T00:51:49.889Z,97417.86
2019-02-24T00:54:37.995Z,97408.55
2019-02-24T00:57:26.860Z,97397.81
2019-02-24T01:00:16.022Z,97397.00
2019-02-24T01:03:05.027Z,97393.38
2019-02-24T01:05:53.645Z,97394.48
2019-02-24T01:08:42.328Z,97393.45
2019-02-24T01:11:31.080Z,97388.92
2019-02-24T01:14:19.801Z,97384.17
2019-02-24T01:17:10.316Z,97384.64
2019-02-24T01:19:59.258Z,97382.21
2019-02-24T01:22:47.696Z,97383.96
2019-02-24T01:25:36.263Z,97385.50
2019-02-24T01:28:25.658Z,97385.24
2019-02-24T01:31:14.234Z,97386.91
2019-02-24T01:34:02.768Z,97381.73
2019-02-24T01:36:51.557Z,97374.05
2019-02-24T01:39:40.669Z,97366.75
2019-02-24T01:42:29.506Z,97370.55
2019-02-24T01:45:17.921Z,97368.37
2019-02-24T01:48:06.474Z,97360.34
2019-02-24T01:50:54.824Z,97370.46
2019-02-24T01:53:43.459Z,97371.27
2019-02-24T01:56:32.008Z,97371.09
2019-02-24T01:59:20.929Z,97375.16
2019-02-24T02:02:09.844Z,97373.31
2019-02-24T02:04:58.603Z,97368.53
2019-02-24T02:07:47.186Z,97369.77
2019-02-24T02:10:35.411Z,97366.73
2019-02-24T02:13:24.168Z,97373.01
2019-02-24T02:16:12.841Z,97366.26
2019-02-24T02:19:01.085Z,97370.44
2019-02-24T02:21:49.886Z,97364.25
2019-02-24T02:24:38.270Z,97360.66
2019-02-24T02:27:27.355Z,97360.73
2019-02-24T02:30:16.157Z,97349.52
2019-02-24T02:33:04.949Z,97355.92
2019-02-24T02:35:53.635Z,97344.89
2019-02-24T02:38:42.472Z,97346.22
2019-02-24T02:41:31.426Z,97346.35
2019-02-24T02:44:20.212Z,97347.16
2019-02-24T02:47:09.124Z,97346.22
2019-02-24T02:49:57.723Z,97342.80
2019-02-24T02:52:45.872Z,97344.41
2019-02-24T02:55:34.569Z,97340.96
2019-02-24T02:58:22.631Z,97338.06
2019-02-24T03:01:10.789Z,97336.59
2019-02-24T03:03:59.891Z,97339.28
2019-02-24T03:07:06.801Z,97336.92
2019-02-24T03:09:55.744Z,97343.75
2019-02-24T03:12:44.938Z,97346.56
2019-02-24T03:15:34.038Z,97348.31
2019-02-24T03:18:22.586Z,97352.97
2019-02-24T03:21:10.711Z,97353.44
2019-02-24T03:23:59.472Z,97354.53
2019-02-24T03:26:48.549Z,97350.69
2019-02-24T03:29:37.406Z,97353.98
2019-02-24T03:32:26.257Z,97354.06
2019-02-24T03:35:15.033Z,97347.58
2019-02-24T03:38:03.745Z,97345.35
2019-02-24T03:40:52.169Z,97339.42
2019-02-24T03:43:40.197Z,97337.67
2019-02-24T03:46:28.323Z,97338.09
2019-02-24T03:49:16.944Z,97336.81
2019-02-24T03:52:05.800Z,97340.18
2019-02-24T03:54:54.268Z,97334.17
2019-02-24T03:57:43.030Z,97339.96
2019-02-24T04:00:32.069Z,97339.02
2019-02-24T04:03:20.870Z,97342.80
2019-02-24T04:06:10.022Z,97345.84
2019-02-24T04:08:58.806Z,97345.03
2019-02-24T04:11:47.646Z,97350.81
2019-02-24T04:14:36.212Z,97339.89
2019-02-24T04:17:25.201Z,97347.71
2019-02-24T04:20:14.080Z,97338.95
2019-02-24T04:23:02.117Z,97344.69
2019-02-24T04:25:50.532Z,97344.94
2019-02-24T04:28:39.115Z,97350.48
2019-02-24T04:31:27.895Z,97346.56
2019-02-24T04:34:16.813Z,97342.64
2019-02-24T04:37:05.396Z,97338.13
2019-02-24T04:39:54.152Z,97335.33
2019-02-24T04:42:43.312Z,97340.02
2019-02-24T04:45:32.470Z,97345.29
2019-02-24T04:48:21.014Z,97343.59
2019-02-24T04:51:09.880Z,97342.26
2019-02-24T04:53:58.489Z,97341.36
2019-02-24T04:56:46.742Z,97338.41
2019-02-24T04:59:35.451Z,97342.06
2019-02-24T05:02:24.197Z,97338.89
2019-02-24T05:05:12.941Z,97339.14
2019-02-24T05:08:01.294Z,97333.41
2019-02-24T05:10:49.475Z,97342.70
2019-02-24T05:13:38.474Z,97346.16
2019-02-24T05:16:26.680Z,97345.73
2019-02-24T05:19:15.037Z,97351.66
2019-02-24T05:22:03.393Z,97354.55
2019-02-24T05:24:51.853Z,97362.32
2019-02-24T05:27:40.685Z,97357.11
2019-02-24T05:30:29.365Z,97363.37
2019-02-24T05:33:18.123Z,97364.98
2019-02-24T05:36:06.190Z,97370.86
2019-02-24T05:38:55.164Z,97370.44
2019-02-24T05:41:43.934Z,97373.80
2019-02-24T05:44:32.919Z,97373.28
2019-02-24T05:47:21.269Z,97376.50
2019-02-24T05:50:09.978Z,97368.31
2019-02-24T05:52:58.562Z,97369.68
2019-02-24T05:55:46.971Z,97372.09
2019-02-24T05:58:35.474Z,97371.63
2019-02-24T06:01:23.633Z,97367.89
2019-02-24T06:04:12.448Z,97371.72
2019-02-24T06:07:01.047Z,97374.28
2019-02-24T06:09:49.594Z,97383.09
2019-02-24T06:12:38.756Z,97383.90
2019-02-24T06:15:27.460Z,97375.28
2019-02-24T06:18:15.981Z,97383.42
2019-02-24T06:21:04.720Z,97383.52
2019-02-24T06:23:53.379Z,97384.05
2019-02-24T06:26:42.217Z,97385.80
2019-02-24T06:29:31.174Z,97395.92
2019-02-24T06:32:20.095Z,97395.89
2019-02-24T06:35:09.044Z,97396.73
2019-02-24T06:37:57.798Z,97396.73
2019-02-24T06:40:46.607Z,97394.08
2019-02-24T06:43:35.241Z,97398.30
2019-02-24T06:46:24.168Z,97396.97
2019-02-24T06:51:50.368Z,97396.59
2019-02-24T06:54:39.411Z,97404.13
2019-02-24T06:57:27.659Z,97404.33
2019-02-24T07:00:16.737Z,97401.99
2019-02-24T07:03:04.857Z,97413.98
2019-02-24T07:05:53.352Z,97414.27
2019-02-24T07:08:42.293Z,97415.88
2019-02-24T07:11:30.944Z,97423.46
2019-02-24T07:14:18.999Z,97418.48
2019-02-24T07:17:07.647Z,97426.58
2019-02-24T07:19:56.598Z,97424.49
2019-02-24T07:22:45.199Z,97432.59
2019-02-24T07:25:34.323Z,97444.87
2019-02-24T07:28:23.424Z,97449.31
2019-02-24T07:31:12.101Z,97454.13
2019-02-24T07:34:00.632Z,97463.63
2019-02-24T07:36:49.048Z,97472.83
2019-02-24T07:39:37.459Z,97471.34
2019-02-24T07:42:25.741Z,97479.64
2019-02-24T07:45:14.373Z,97482.67
2019-02-24T07:48:02.737Z,97494.39
2019-02-24T07:50:51.433Z,97487.23
2019-02-24T07:53:40.009Z,97491.09
2019-02-24T07:56:28.165Z,97490.33
2019-02-24T07:59:16.893Z,97486.74
2019-02-24T08:02:05.017Z,97489.78
2019-02-24T08:04:53.073Z,97488.67
2019-02-24T08:07:41.343Z,97487.85
2019-02-24T08:10:29.739Z,97477.54
2019-02-24T08:13:18.061Z,97473.64
2019-02-24T08:16:06.635Z,97479.97
2019-02-24T08:18:54.890Z,97481.12
2019-02-24T08:21:43.482Z,97479.61
2019-02-24T08:24:32.363Z,97475.80
2019-02-24T08:27:20.835Z,97478.23
2019-02-24T08:30:10.409Z,97469.87
2019-02-24T08:32:58.918Z,97457.83
2019-02-24T08:35:47.499Z,97448.48
2019-02-24T08:38:35.896Z,97425.18
2019-02-24T08:41:24.538Z,97421.67
2019-02-24T08:44:13.512Z,97416.14
2019-02-24T08:47:02.326Z,97412.68
2019-02-24T08:49:50.815Z,97408.20
2019-02-24T08:52:39.992Z,97394.95
2019-02-24T08:55:28.870Z,97389.50
2019-02-24T08:58:17.932Z,97385.94
2019-02-24T09:01:06.888Z,97385.45
2019-02-24T09:03:55.708Z,97396.93
2019-02-24T09:06:44.890Z,97393.76
2019-02-24T09:09:33.525Z,97379.08
2019-02-24T09:12:22.594Z,97373.97
2019-02-24T09:15:11.442Z,97373.08
2019-02-24T09:17:59.994Z,97369.92
2019-02-24T09:20:49.299Z,97373.23
2019-02-24T09:23:37.901Z,97380.16
2019-02-24T09:26:26.758Z,97389.11
2019-02-24T09:29:16.080Z,97386.77
2019-02-24T09:32:04.313Z,97389.18
2019-02-24T09:34:52.844Z,97407.94
2019-02-24T09:37:41.819Z,97424.16
2019-02-24T09:40:30.639Z,97415.10
2019-02-24T09:43:19.222Z,97402.21
2019-02-24T09:46:07.987Z,97406.92
2019-02-24T09:48:56.840Z,97403.34
2019-02-24T09:51:45.564Z,97396.58
2019-02-24T09:54:34.288Z,97390.89
2019-02-24T09:57:23.668Z,97381.48
2019-02-24T10:00:12.698Z,97390.00
2019-02-24T10:03:01.284Z,97398.16
2019-02-24T10:05:50.276Z,97412.92
2019-02-24T10:08:39.240Z,97432.49
2019-02-24T10:11:28.578Z,97440.07
2019-02-24T10:14:17.084Z,97432.99
2019-02-24T10:17:05.922Z,97419.28
2019-02-24T10:19:54.900Z,97415.77
2019-02-24T10:22:45.326Z,97415.20
2019-02-24T10:25:34.203Z,97413.76
2019-02-24T10:28:24.146Z,97424.50
2019-02-24T10:31:19.644Z,97427.41
2019-02-24T10:34:03.656Z,97418.61
2019-02-24T10:36:52.489Z,97414.21
2019-02-24T10:39:40.851Z,97412.42
2019-02-24T10:42:29.818Z,97409.09
2019-02-24T10:45:18.832Z,97415.45
2019-02-24T10:48:14.003Z,97407.05
2019-02-24T10:50:57.520Z,97412.72
2019-02-24T10:53:46.371Z,97409.53
2019-02-24T10:56:35.682Z,97407.78
2019-02-24T10:59:24.623Z,97415.27
2019-02-24T11:02:14.463Z,97406.25
2019-02-24T11:05:03.354Z,97421.69
2019-02-24T11:07:52.190Z,97417.07
2019-02-24T11:10:41.470Z,97410.78
2019-02-24T11:13:30.121Z,97416.02
2019-02-24T11:16:18.954Z,97407.03
2019-02-24T11:19:08.244Z,97406.84
2019-02-24T11:21:56.940Z,97406.84
2019-02-24T11:24:45.471Z,97394.77
2019-02-24T11:27:33.975Z,97391.36
2019-02-24T11:30:22.788Z,97387.11
2019-02-24T11:33:11.552Z,97390.64
2019-02-24T11:35:59.884Z,97378.16
2019-02-24T11:38:48.068Z,97378.69
2019-02-24T11:41:37.092Z,97382.98
2019-02-24T11:44:25.936Z,97375.77
2019-02-24T11:47:14.951Z,97378.00
2019-02-24T11:50:03.502Z,97378.53
2019-02-24T11:52:52.688Z,97379.91
2019-02-24T11:55:41.771Z,97373.94
2019-02-24T11:58:31.046Z,97376.20
2019-02-24T12:01:20.168Z,97386.75
2019-02-24T12:04:08.821Z,97386.37
2019-02-24T12:06:57.627Z,97402.82
2019-02-24T12:12:26.739Z,97377.05
2019-02-24T12:15:15.332Z,97384.91
2019-02-24T12:18:03.736Z,97387.52
2019-02-24T12:20:52.482Z,97395.58
2019-02-24T12:23:40.661Z,97392.50
2019-02-24T12:26:29.646Z,97392.46
2019-02-24T12:29:17.876Z,97397.21
2019-02-24T12:32:06.409Z,97400.22
2019-02-24T12:34:55.056Z,97394.49
2019-02-24T12:37:43.603Z,97390.06
2019-02-24T12:40:32.962Z,97385.64
2019-02-24T12:43:21.942Z,97373.48
2019-02-24T12:46:10.606Z,97368.36
2019-02-24T12:48:59.133Z,97370.05
2019-02-24T12:51:47.361Z,97364.84
2019-02-24T12:54:35.879Z,97364.33
2019-02-24T12:57:24.832Z,97366.92
2019-02-24T13:00:16.729Z,97380.84
2019-02-24T13:03:05.669Z,97376.04
2019-02-24T13:05:54.216Z,97371.14
2019-02-24T13:08:43.153Z,97378.83
2019-02-24T13:11:32.795Z,97384.89
2019-02-24T13:14:21.895Z,97382.64
2019-02-24T13:17:11.091Z,97378.68
2019-02-24T13:20:00.280Z,97372.59
2019-02-24T13:22:49.473Z,97370.41
2019-02-24T13:25:38.387Z,97372.91
2019-02-24T13:28:27.162Z,97378.48
2019-02-24T13:31:16.377Z,97368.98
2019-02-24T13:34:05.321Z,97367.27
2019-02-24T13:36:54.018Z,97373.31
2019-02-24T13:39:42.815Z,97378.55
2019-02-24T13:42:31.452Z,97376.81
2019-02-24T13:45:20.607Z,97380.64
2019-02-24T13:48:09.276Z,97382.38
2019-02-24T13:50:57.746Z,97384.23
2019-02-24T13:53:46.813Z,97376.08
2019-02-24T13:56:35.862Z,97367.45
2019-02-24T13:59:24.619Z,97370.84
2019-02-24T14:02:13.081Z,97364.83
2019-02-24T14:05:02.309Z,97363.20
2019-02-24T14:07:51.689Z,97357.46
2019-02-24T14:10:40.317Z,97359.97
2019-02-24T14:13:28.981Z,97351.98
2019-02-24T14:16:17.583Z,97347.73
2019-02-24T14:19:06.122Z,97343.39
2019-02-24T14:21:55.037Z,97352.05
2019-02-24T14:24:44.001Z,97355.94
2019-02-24T14:27:32.705Z,97362.45
2019-02-24T14:30:21.809Z,97365.45
2019-02-24T14:33:10.661Z,97358.48
2019-02-24T14:35:59.314Z,97363.20
2019-02-24T14:38:48.176Z,97365.19
2019-02-24T14:41:38.199Z,97370.23
2019-02-24T14:44:26.425Z,97373.02
2019-02-24T14:47:15.424Z,97374.98
2019-02-24T14:50:03.943Z,97377.62
2019-02-24T14:52:52.988Z,97378.95
2019-02-24T14:55:41.959Z,97391.80
2019-02-24T14:58:31.045Z,97392.98
2019-02-24T15:01:19.801Z,97392.16
2019-02-24T15:04:08.937Z,97393.01
2019-02-24T15:06:58.101Z,97392.98
2019-02-24T15:09:48.261Z,97395.92
2019-02-24T15:12:36.853Z,97392.44
2019-02-24T15:15:32.448Z,97393.30
2019-02-24T15:18:15.547Z,97398.05
2019-02-24T15:21:05.821Z,97389.80
2019-02-24T15:23:55.094Z,97394.59
2019-02-24T15:26:43.740Z,97398.42
2019-02-24T15:29:32.374Z,97394.56
2019-02-24T15:32:21.203Z,97388.57
2019-02-24T15:35:10.198Z,97395.92
2019-02-24T15:37:58.892Z,97394.66
2019-02-24T15:40:47.794Z,97382.64
2019-02-24T15:43:36.942Z,97385.21
2019-02-24T15:46:26.870Z,97387.19
2019-02-24T15:49:15.978Z,97389.23
2019-02-24T15:52:09.952Z,97384.64
2019-02-24T15:54:54.822Z,97379.91
2019-02-24T15:57:43.991Z,97384.60
2019-02-24T16:00:34.107Z,97386.19
2019-02-24T16:03:22.858Z,97384.67
2019-02-24T16:06:11.901Z,97391.42
2019-02-24T16:09:01.020Z,97396.88
2019-02-24T16:11:49.797Z,97388.91
2019-02-24T16:14:38.726Z,97391.34
2019-02-24T16:17:27.635Z,97395.95
2019-02-24T16:20:19.074Z,97395.72
2019-02-24T16:23:07.589Z,97397.72
2019-02-24T16:25:56.573Z,97396.75
2019-02-24T16:28:46.301Z,97403.97
2019-02-24T16:31:35.630Z,97398.20
2019-02-24T16:34:24.582Z,97405.41
2019-02-24T16:37:13.591Z,97412.56
2019-02-24T16:40:02.615Z,97415.42
2019-02-24T16:42:52.383Z,97415.27
2019-02-24T16:45:41.164Z,97419.02
2019-02-24T16:48:29.627Z,97415.47
2019-02-24T16:51:18.529Z,97419.26
2019-02-24T16:54:08.210Z,97425.19
2019-02-24T16:57:04.801Z,97420.34
2019-02-24T16:59:47.881Z,97417.98
2019-02-24T17:02:39.720Z,97417.31
2019-02-24T17:05:28.907Z,97416.26
2019-02-24T17:08:18.174Z,97425.11
2019-02-24T17:11:07.757Z,97427.91
2019-02-24T17:13:56.594Z,97433.35
2019-02-24T17:16:44.936Z,97430.98
2019-02-24T17:19:33.563Z,97428.64
2019-02-24T17:22:22.353Z,97444.39
2019-02-24T17:25:10.776Z,97445.09
2019-02-24T17:27:59.818Z,97445.48
2019-02-24T17:30:48.441Z,97452.73
2019-02-24T17:33:37.331Z,97449.22
2019-02-24T17:36:26.004Z,97452.64
2019-02-24T17:39:14.564Z,97448.70
2019-02-24T17:42:03.037Z,97450.66
2019-02-24T17:44:51.115Z,97450.58
2019-02-24T17:47:40.685Z,97455.55
2019-02-24T17:50:29.524Z,97452.32
2019-02-24T17:53:18.608Z,97457.30
2019-02-24T17:56:07.399Z,97462.78
2019-02-24T17:58:56.255Z,97459.64
2019-02-24T18:01:44.915Z,97452.52
2019-02-24T18:04:34.015Z,97451.83
2019-02-24T18:07:23.020Z,97457.75
2019-02-24T18:10:12.363Z,97455.86
2019-02-24T18:13:01.520Z,97456.53
2019-02-24T18:15:50.173Z,97453.30
2019-02-24T18:18:38.682Z,97453.14
2019-02-24T18:21:27.889Z,97452.98
2019-02-24T18:24:17.353Z,97454.58
2019-02-24T18:27:05.842Z,97457.45
2019-02-24T18:29:54.423Z,97461.63
2019-02-24T18:32:43.921Z,97466.17
2019-02-24T18:35:32.435Z,97466.46
2019-02-24T18:38:21.447Z,97468.05
2019-02-24T18:41:09.878Z,97459.27
2019-02-24T18:43:58.690Z,97463.45
2019-02-24T18:46:47.643Z,97458.21
2019-02-24T18:49:36.168Z,97466.33
2019-02-24T18:52:25.589Z,97466.61
2019-02-24T18:55:14.674Z,97473.36
2019-02-24T18:58:03.436Z,97473.18
2019-02-24T19:00:51.688Z,97481.64
2019-02-24T19:03:41.757Z,97472.85
2019-02-24T19:06:38.933Z,97480.50
2019-02-24T19:09:21.194Z,97475.23
2019-02-24T19:12:10.094Z,97485.92
2019-02-24T19:14:58.259Z,97484.53
2019-02-24T19:17:47.015Z,97479.38
2019-02-24T19:20:36.228Z,97483.16
2019-02-24T19:23:25.293Z,97472.31
2019-02-24T19:26:14.224Z,97477.84
2019-02-24T19:29:02.655Z,97477.29
2019-02-24T19:31:51.807Z,97476.80
2019-02-24T19:34:40.265Z,97487.02
2019-02-24T19:37:29.426Z,97486.50
2019-02-24T19:40:18.153Z,97492.45
2019-02-24T19:43:06.901Z,97489.35
2019-02-24T19:45:55.492Z,97487.57
2019-02-24T19:48:44.463Z,97490.09
2019-02-24T19:51:33.222Z,97482.69
2019-02-24T19:54:22.349Z,97480.48
2019-02-24T19:57:11.464Z,97478.20
2019-02-24T20:00:00.344Z,97481.05
2019-02-24T20:02:49.802Z,97486.08
2019-02-24T20:05:39.018Z,97485.19
2019-02-24T20:08:28.511Z,97485.05
2019-02-24T20:11:17.754Z,97483.11
2019-02-24T20:14:06.926Z,97483.97
2019-02-24T20:16:55.803Z,97489.82
2019-02-24T20:19:44.806Z,97491.77
2019-02-24T20:22:35.155Z,97498.51
2019-02-24T20:25:23.965Z,97500.98
2019-02-24T20:28:12.450Z,97503.00
2019-02-24T20:31:01.404Z,97504.55
2019-02-24T20:33:51.457Z,97497.05
2019-02-24T20:36:40.751Z,97495.79
2019-02-24T20:39:29.563Z,97504.14
2019-02-24T20:42:19.049Z,97512.22
2019-02-24T20:45:09.285Z,97514.23
2019-02-24T20:47:57.901Z,97516.34
2019-02-24T20:50:46.895Z,97507.58
2019-02-24T20:53:35.191Z,97511.41
2019-02-24T20:56:24.399Z,97519.32
2019-02-24T20:59:13.461Z,97519.28
2019-02-24T21:02:02.358Z,97519.18
2019-02-24T21:04:50.960Z,97525.51
2019-02-24T21:07:39.235Z,97520.72
2019-02-24T21:10:28.068Z,97512.92
2019-02-24T21:13:17.210Z,97515.03
2019-02-24T21:16:06.078Z,97515.39
2019-02-24T21:18:55.185Z,97517.50
2019-02-24T21:21:44.591Z,97522.54
2019-02-24T21:24:33.687Z,97525.47
2019-02-24T21:27:22.922Z,97526.65
2019-02-24T21:30:14.292Z,97515.78
2019-02-24T21:33:03.290Z,97514.03
2019-02-24T21:35:51.960Z,97508.84
2019-02-24T21:38:40.886Z,97503.16
2019-02-24T21:41:29.970Z,97504.91
2019-02-24T21:44:19.180Z,97504.05
2019-02-24T21:47:08.578Z,97508.37
2019-02-24T21:49:57.076Z,97500.58
2019-02-24T21:52:46.055Z,97502.34
2019-02-24T21:55:34.557Z,97497.55
2019-02-24T21:58:23.250Z,97495.29
2019-02-24T22:01:11.796Z,97493.07
2019-02-24T22:04:00.903Z,97499.00
2019-02-24T22:06:49.796Z,97498.14
2019-02-24T22:09:38.834Z,97495.00
2019-02-24T22:12:28.546Z,97493.95
2019-02-24T22:15:18.194Z,97495.63
2019-02-24T22:18:06.738Z,97504.53
2019-02-24T22:20:54.719Z,97500.91
2019-02-24T22:23:43.035Z,97501.23
2019-02-24T22:26:31.499Z,97500.34
2019-02-24T22:29:20.905Z,97506.19
2019-02-24T22:32:10.129Z,97505.80
2019-02-24T22:34:58.763Z,97510.94
2019-02-24T22:37:47.583Z,97512.16
2019-02-24T22:40:36.468Z,97506.50
2019-02-24T22:43:25.680Z,97510.25
2019-02-24T22:46:14.937Z,97505.45
2019-02-24T22:49:03.620Z,97512.28
2019-02-24T22:51:52.631Z,97504.80
2019-02-24T22:54:41.951Z,97505.97
2019-02-24T22:57:30.306Z,97497.80
2019-02-24T23:01:00.330Z,97498.69
2019-02-24T23:03:49.534Z,97507.69
2019-02-24T23:06:37.945Z,97510.18
2019-02-24T23:09:27.019Z,97507.69
2019-02-24T23:12:15.446Z,97506.75
2019-02-24T23:15:04.926Z,97504.53
2019-02-24T23:17:53.812Z,97501.89
2019-02-24T23:20:42.272Z,97504.34
2019-02-24T23:23:31.584Z,97504.34
2019-02-24T23:26:20.939Z,97503.88
2019-02-24T23:29:09.900Z,97507.69
2019-02-24T23:31:57.976Z,97499.39
2019-02-24T23:34:46.614Z,97500.02
2019-02-24T23:37:35.369Z,97499.16
2019-02-24T23:40:24.331Z,97492.61
2019-02-24T23:43:13.340Z,97491.02
2019-02-24T23:46:02.639Z,97485.95
2019-02-24T23:48:51.434Z,97486.30
2019-02-24T23:51:40.097Z,97480.97
2019-02-24T23:54:29.027Z,97481.28
2019-02-24T23:57:17.839Z,97479.45
